Time;durP1;ratioP1;P1;durP2;ratioP2;P2;SDS_P1;SDS_P2;PMS_P1;PMS_P2;Temp;Humidity;BMP_temperature;BMP_pressure;BME280_temperature;BME280_humidity;BME280_pressure;Samples;Min_cycle;Max_cycle;Signal;HPM_P1;HPM_P2
2024/03/11 00:02:08;;;;;;;21.48;10.32;;;9.30;99.90;;;;;;5013013;28;20087;-74
2024/03/11 00:04:34;;;;;;;24.27;9.95;;;9.30;99.90;;;;;;5016465;28;20060;-74
2024/03/11 00:07:01;;;;;;;22.67;10.55;;;9.30;99.90;;;;;;4997804;28;20466;-75
2024/03/11 00:09:32;;;;;;;29.27;11.68;;;9.30;99.90;;;;;;5016889;28;20058;-74
2024/03/11 00:11:59;;;;;;;22.52;10.75;;;9.30;99.90;;;;;;5016017;28;20041;-74
2024/03/11 00:14:28;;;;;;;24.38;11.40;;;9.30;99.90;;;;;;4998846;28;20564;-76
2024/03/11 00:16:58;;;;;;;29.05;12.00;;;9.30;99.90;;;;;;5015118;28;20133;-75
2024/03/11 00:19:25;;;;;;;27.35;10.88;;;9.30;99.90;;;;;;5016646;28;20049;-75
2024/03/11 00:21:55;;;;;;;23.85;10.10;;;9.30;99.90;;;;;;5014323;28;20026;-74
2024/03/11 00:24:21;;;;;;;24.80;10.48;;;9.20;99.90;;;;;;5017199;28;20038;-75
2024/03/11 00:26:47;;;;;;;23.23;10.85;;;9.20;99.90;;;;;;4998313;28;20037;-76
2024/03/11 00:29:14;;;;;;;24.77;11.15;;;9.20;99.90;;;;;;5011979;28;20041;-76
2024/03/11 00:31:39;;;;;;;23.25;11.13;;;9.30;99.90;;;;;;5013938;28;20037;-75
2024/03/11 00:34:05;;;;;;;22.30;10.07;;;9.30;99.90;;;;;;5015579;28;20121;-74
2024/03/11 00:36:31;;;;;;;23.08;10.25;;;9.20;99.90;;;;;;5000500;28;20056;-74
2024/03/11 00:38:57;;;;;;;22.48;10.15;;;9.20;99.90;;;;;;5020717;28;20092;-76
2024/03/11 00:41:24;;;;;;;27.77;11.25;;;9.20;99.90;;;;;;5021244;28;20034;-75
2024/03/11 00:43:50;;;;;;;26.88;12.38;;;9.10;99.90;;;;;;5018017;28;20033;-75
2024/03/11 00:46:16;;;;;;;21.17;10.63;;;9.10;99.90;;;;;;5017504;28;20033;-76
2024/03/11 00:48:43;;;;;;;27.33;11.23;;;9.10;99.90;;;;;;5014137;28;20521;-76
2024/03/11 00:51:09;;;;;;;21.65;10.52;;;9.10;99.90;;;;;;5011679;28;20038;-74
2024/03/11 00:53:35;;;;;;;29.50;10.95;;;9.10;99.90;;;;;;5009654;28;20121;-76
2024/03/11 00:56:01;;;;;;;25.20;11.02;;;9.00;99.90;;;;;;5000320;28;20171;-75
2024/03/11 00:58:28;;;;;;;21.58;10.32;;;9.00;99.90;;;;;;4998327;28;20037;-75
2024/03/11 01:00:57;;;;;;;23.08;10.52;;;9.00;99.90;;;;;;5016346;28;20045;-74
2024/03/11 01:03:22;;;;;;;22.70;10.68;;;9.00;99.90;;;;;;4998888;28;20176;-74
2024/03/11 01:05:49;;;;;;;28.60;10.95;;;9.00;99.90;;;;;;5014165;28;20125;-74
2024/03/11 01:08:16;;;;;;;24.25;10.38;;;9.00;99.90;;;;;;5016326;28;20064;-76
2024/03/11 01:10:42;;;;;;;29.33;11.63;;;9.00;99.90;;;;;;5021445;28;20060;-76
2024/03/11 01:13:07;;;;;;;30.33;12.30;;;8.90;99.90;;;;;;4994340;28;20045;-74
2024/03/11 01:15:34;;;;;;;24.50;11.43;;;8.90;99.90;;;;;;4999983;28;20029;-75
2024/03/11 01:18:00;;;;;;;23.95;10.38;;;8.90;99.90;;;;;;5015778;28;20034;-75
2024/03/11 01:20:25;;;;;;;22.23;10.57;;;8.90;99.90;;;;;;5017139;28;20037;-74
2024/03/11 01:22:51;;;;;;;26.20;10.82;;;8.80;99.90;;;;;;5018856;28;20033;-76
2024/03/11 01:25:18;;;;;;;22.60;11.45;;;8.90;99.90;;;;;;5003731;28;20056;-76
2024/03/11 01:27:45;;;;;;;22.83;10.43;;;8.80;99.90;;;;;;5031311;28;20029;-76
2024/03/11 01:30:11;;;;;;;24.00;10.18;;;8.80;99.90;;;;;;4997326;28;20554;-76
2024/03/11 01:32:41;;;;;;;25.33;11.80;;;8.80;99.90;;;;;;5013858;28;20034;-75
2024/03/11 01:35:11;;;;;;;23.55;10.80;;;8.80;99.90;;;;;;4990518;28;20487;-74
2024/03/11 01:37:36;;;;;;;24.52;11.30;;;8.80;99.90;;;;;;4988561;28;20075;-76
2024/03/11 01:40:03;;;;;;;25.90;11.38;;;8.80;99.90;;;;;;5007580;28;20461;-75
2024/03/11 01:42:29;;;;;;;26.30;12.18;;;8.80;99.90;;;;;;5006873;28;20121;-75
2024/03/11 01:44:54;;;;;;;28.65;12.27;;;8.80;99.90;;;;;;4994018;28;20141;-76
2024/03/11 01:47:24;;;;;;;25.40;11.57;;;8.80;99.90;;;;;;5012900;28;20038;-75
2024/03/11 01:49:52;;;;;;;26.03;11.07;;;8.80;99.90;;;;;;4995224;28;20065;-75
2024/03/11 01:52:33;;;;;;;22.70;10.50;;;8.80;99.90;;;;;;5012287;28;20026;-74
2024/03/11 01:55:02;;;;;;;20.90;10.02;;;8.80;99.90;;;;;;4994181;28;20029;-76
2024/03/11 01:57:28;;;;;;;27.70;11.30;;;8.80;99.90;;;;;;4994066;28;20506;-75
2024/03/11 01:59:54;;;;;;;23.05;10.80;;;8.70;99.90;;;;;;5012089;28;20030;-77
2024/03/11 02:02:24;;;;;;;25.45;12.18;;;8.70;99.90;;;;;;4997984;28;20450;-74
2024/03/11 02:04:49;;;;;;;27.05;11.30;;;8.70;99.90;;;;;;4994762;28;20100;-75
2024/03/11 02:07:15;;;;;;;22.63;10.77;;;8.70;99.90;;;;;;5012791;28;20030;-77
2024/03/11 02:09:42;;;;;;;26.58;11.52;;;8.60;99.90;;;;;;5017790;28;20026;-76
2024/03/11 02:12:09;;;;;;;27.40;11.15;;;8.60;99.90;;;;;;5015898;28;20032;-74
2024/03/11 02:14:35;;;;;;;28.05;12.15;;;8.60;99.90;;;;;;4993210;28;20494;-74
2024/03/11 02:17:02;;;;;;;27.67;12.45;;;8.60;99.90;;;;;;5011365;28;20033;-76
2024/03/11 02:19:28;;;;;;;24.98;11.75;;;8.60;99.90;;;;;;4993963;28;20134;-75
2024/03/11 02:21:54;;;;;;;27.45;11.32;;;8.60;99.90;;;;;;5012499;28;20113;-75
2024/03/11 02:24:19;;;;;;;25.63;11.65;;;8.60;99.90;;;;;;5013724;28;20030;-75
2024/03/11 02:26:48;;;;;;;25.27;11.25;;;8.60;99.90;;;;;;5003861;28;20487;-75
2024/03/11 02:29:17;;;;;;;29.08;13.25;;;8.60;99.90;;;;;;5011283;28;20406;-75
2024/03/11 02:31:47;;;;;;;27.38;12.50;;;8.60;99.90;;;;;;5013808;28;20029;-77
2024/03/11 02:34:14;;;;;;;27.63;11.93;;;8.60;99.90;;;;;;5010149;28;20042;-75
2024/03/11 02:36:48;;;;;;;25.90;11.77;;;8.50;99.90;;;;;;4993886;28;20041;-76
2024/03/11 02:39:19;;;;;;;32.30;12.13;;;8.60;99.90;;;;;;5016150;28;20491;-75
2024/03/11 02:41:45;;;;;;;23.95;11.32;;;8.50;99.90;;;;;;4993774;28;20042;-75
2024/03/11 02:44:14;;;;;;;27.83;10.68;;;8.60;99.90;;;;;;5017186;28;20053;-74
2024/03/11 02:46:43;;;;;;;22.38;10.80;;;8.50;99.90;;;;;;4999720;28;20829;-75
2024/03/11 02:49:10;;;;;;;22.60;10.02;;;8.50;99.90;;;;;;5016571;28;20042;-73
2024/03/11 02:51:38;;;;;;;28.58;10.70;;;8.50;99.90;;;;;;5015870;28;20037;-74
2024/03/11 02:54:08;;;;;;;24.13;11.10;;;8.50;99.90;;;;;;5007106;28;20037;-75
2024/03/11 02:56:34;;;;;;;24.85;10.55;;;8.50;99.90;;;;;;5025471;28;20037;-76
2024/03/11 02:59:00;;;;;;;27.77;11.55;;;8.50;99.90;;;;;;4998427;28;20080;-78
2024/03/11 03:01:27;;;;;;;25.95;11.88;;;8.50;99.90;;;;;;5015443;28;20121;-75
2024/03/11 03:03:53;;;;;;;25.92;10.63;;;8.50;99.90;;;;;;5016789;28;20099;-75
2024/03/11 03:06:18;;;;;;;26.20;12.32;;;8.60;99.90;;;;;;5014065;28;20042;-75
2024/03/11 03:08:45;;;;;;;27.10;11.63;;;8.60;99.90;;;;;;5016574;28;20222;-74
2024/03/11 03:11:14;;;;;;;26.38;11.98;;;8.60;99.90;;;;;;4999237;28;20029;-75
2024/03/11 03:13:39;;;;;;;25.42;10.90;;;8.60;99.90;;;;;;4999140;28;20048;-76
2024/03/11 03:16:06;;;;;;;21.88;11.00;;;8.60;99.90;;;;;;4998076;28;20045;-75
2024/03/11 03:18:34;;;;;;;25.35;11.68;;;8.60;99.90;;;;;;4997547;28;20507;-75
2024/03/11 03:20:59;;;;;;;31.55;12.13;;;8.60;99.90;;;;;;5017636;28;20037;-75
2024/03/11 03:23:26;;;;;;;22.63;10.43;;;8.60;99.90;;;;;;5011447;28;20411;-75
2024/03/11 03:25:52;;;;;;;25.58;11.85;;;8.50;99.90;;;;;;5017997;28;20025;-74
2024/03/11 03:28:18;;;;;;;24.70;11.38;;;8.50;99.90;;;;;;4999269;28;20045;-74
2024/03/11 03:30:45;;;;;;;27.73;12.35;;;8.50;99.90;;;;;;4999419;28;20176;-75
2024/03/11 03:33:11;;;;;;;23.10;10.60;;;8.50;99.90;;;;;;5000933;28;20072;-75
2024/03/11 03:35:37;;;;;;;26.13;11.45;;;8.50;99.90;;;;;;5000439;28;20034;-76
2024/03/11 03:38:02;;;;;;;23.33;10.38;;;8.50;99.90;;;;;;5015499;28;20033;-75
2024/03/11 03:40:28;;;;;;;28.20;11.35;;;8.50;99.90;;;;;;5025229;28;20080;-76
2024/03/11 03:42:54;;;;;;;25.70;10.98;;;8.50;99.90;;;;;;5020094;28;20037;-75
2024/03/11 03:45:21;;;;;;;30.85;11.77;;;8.60;99.90;;;;;;5015542;28;20038;-76
2024/03/11 03:47:47;;;;;;;26.50;10.95;;;8.50;99.90;;;;;;5001112;28;20086;-75
2024/03/11 03:50:12;;;;;;;21.35;10.57;;;8.60;99.90;;;;;;5004146;28;20509;-74
2024/03/11 03:52:42;;;;;;;24.40;10.32;;;8.50;99.90;;;;;;5021929;28;20025;-74
2024/03/11 03:55:11;;;;;;;22.20;11.43;;;8.50;99.90;;;;;;5018964;28;20543;-75
2024/03/11 03:57:42;;;;;;;24.98;11.43;;;8.50;99.90;;;;;;4998709;28;20038;-76
2024/03/11 04:00:18;;;;;;;25.17;11.15;;;8.50;99.90;;;;;;4999725;28;20029;-75
2024/03/11 04:02:51;;;;;;;24.30;11.23;;;8.50;99.90;;;;;;5017895;28;20033;-76
2024/03/11 04:05:17;;;;;;;;;;;8.50;99.90;;;;;;5002188;28;20033;-75
2024/03/11 04:07:43;;;;;;;24.23;12.43;;;8.50;99.90;;;;;;5016685;28;19916;-76
2024/03/11 04:10:13;;;;;;;26.08;11.38;;;8.50;99.90;;;;;;4998906;28;20029;-75
2024/03/11 04:12:44;;;;;;;22.30;11.03;;;8.50;99.90;;;;;;5017171;28;20057;-76
2024/03/11 04:15:12;;;;;;;22.85;10.88;;;8.50;99.90;;;;;;5017987;28;20040;-74
2024/03/11 04:17:42;;;;;;;24.55;11.75;;;8.50;99.90;;;;;;4999450;28;20121;-75
2024/03/11 04:20:12;;;;;;;25.38;10.43;;;8.50;99.90;;;;;;4998772;28;20033;-74
2024/03/11 04:22:49;;;;;;;24.92;12.05;;;8.50;99.90;;;;;;5016494;28;20072;-75
2024/03/11 04:25:21;;;;;;;25.05;11.45;;;8.50;99.90;;;;;;5008855;28;20033;-74
2024/03/11 04:27:47;;;;;;;25.13;11.40;;;8.50;99.90;;;;;;4997576;28;20057;-75
2024/03/11 04:30:14;;;;;;;25.90;12.55;;;8.50;99.90;;;;;;5018164;28;20117;-76
2024/03/11 04:32:51;;;;;;;25.40;10.88;;;8.40;99.90;;;;;;5001867;28;20029;-74
2024/03/11 04:35:17;;;;;;;25.80;10.82;;;8.40;99.90;;;;;;5016199;28;20049;-75
2024/03/11 04:37:43;;;;;;;29.17;12.30;;;8.40;99.90;;;;;;5017368;28;20033;-74
2024/03/11 04:40:09;;;;;;;22.95;11.40;;;8.30;99.90;;;;;;5017913;28;20104;-75
2024/03/11 04:42:35;;;;;;;28.80;13.18;;;8.20;99.90;;;;;;4999166;28;20781;-75
2024/03/11 04:45:00;;;;;;;23.05;11.13;;;8.20;99.90;;;;;;5019002;28;20070;-75
2024/03/11 04:47:26;;;;;;;27.67;13.27;;;8.20;99.90;;;;;;5017649;28;20037;-75
2024/03/11 04:49:51;;;;;;;32.88;12.60;;;8.20;99.90;;;;;;5011463;28;20056;-75
2024/03/11 04:52:17;;;;;;;26.00;12.20;;;8.20;99.90;;;;;;5001547;28;20038;-75
2024/03/11 04:54:42;;;;;;;32.20;12.85;;;8.20;99.90;;;;;;5010058;28;20038;-75
2024/03/11 04:57:08;;;;;;;26.60;11.85;;;8.20;99.90;;;;;;4995813;28;20087;-74
2024/03/11 04:59:34;;;;;;;22.48;11.38;;;8.10;99.90;;;;;;5011871;28;20038;-74
2024/03/11 05:01:59;;;;;;;32.67;12.95;;;8.10;99.90;;;;;;5011851;28;20045;-75
2024/03/11 05:04:25;;;;;;;31.08;12.77;;;8.10;99.90;;;;;;4993006;28;20037;-74
2024/03/11 05:06:50;;;;;;;27.05;13.25;;;8.10;99.90;;;;;;4990642;28;20029;-75
2024/03/11 05:09:16;;;;;;;31.77;12.93;;;8.20;99.90;;;;;;4995818;28;20037;-75
2024/03/11 05:11:42;;;;;;;27.02;12.40;;;8.20;99.90;;;;;;5020856;28;20030;-75
2024/03/11 05:14:07;;;;;;;25.65;12.18;;;8.20;99.90;;;;;;4996078;28;20119;-74
2024/03/11 05:16:33;;;;;;;25.38;11.80;;;8.20;99.90;;;;;;5011671;28;20049;-74
2024/03/11 05:18:58;;;;;;;27.77;11.90;;;8.10;99.90;;;;;;5011910;28;20113;-73
2024/03/11 05:21:25;;;;;;;32.47;12.57;;;8.10;99.90;;;;;;4995761;28;20030;-76
2024/03/11 05:23:50;;;;;;;30.65;12.52;;;8.10;99.90;;;;;;4989860;28;20503;-75
2024/03/11 05:26:18;;;;;;;25.27;11.20;;;8.20;99.90;;;;;;5012733;28;20056;-75
2024/03/11 05:28:44;;;;;;;27.00;13.48;;;8.10;99.90;;;;;;5010766;28;20052;-74
2024/03/11 05:31:11;;;;;;;38.03;13.38;;;8.10;99.90;;;;;;4993594;28;20142;-74
2024/03/11 05:33:36;;;;;;;29.38;12.50;;;8.10;99.90;;;;;;4987296;28;20516;-75
2024/03/11 05:36:02;;;;;;;27.45;13.18;;;8.20;99.90;;;;;;5014399;28;20037;-75
2024/03/11 05:38:28;;;;;;;29.63;14.15;;;8.10;99.90;;;;;;5008484;28;20100;-75
2024/03/11 05:40:53;;;;;;;27.65;12.48;;;8.10;99.90;;;;;;5012165;28;20493;-75
2024/03/11 05:43:19;;;;;;;31.35;12.98;;;8.10;99.90;;;;;;5013325;28;20022;-74
2024/03/11 05:45:47;;;;;;;27.27;12.75;;;8.10;99.90;;;;;;4998000;28;20383;-76
2024/03/11 05:48:13;;;;;;;33.90;13.82;;;8.10;99.90;;;;;;5015094;28;20049;-75
2024/03/11 05:50:39;;;;;;;31.35;14.13;;;8.00;99.90;;;;;;4994446;28;20037;-74
2024/03/11 05:53:04;;;;;;;23.42;12.63;;;8.00;99.90;;;;;;4996382;28;20454;-75
2024/03/11 05:55:33;;;;;;;29.90;13.40;;;8.00;99.90;;;;;;5015410;28;20038;-75
2024/03/11 05:58:14;;;;;;;31.85;14.25;;;8.00;99.90;;;;;;5013243;28;20425;-76
2024/03/11 06:00:43;;;;;;;29.83;14.18;;;7.90;99.90;;;;;;4991019;28;20026;-75
2024/03/11 06:03:10;;;;;;;27.95;12.50;;;7.90;99.90;;;;;;5012729;28;20029;-76
2024/03/11 06:05:36;;;;;;;29.58;13.93;;;7.90;99.90;;;;;;5012702;28;20828;-74
2024/03/11 06:08:01;;;;;;;29.48;13.55;;;7.90;99.90;;;;;;5013490;28;20084;-73
2024/03/11 06:10:27;;;;;;;31.17;14.88;;;7.90;99.90;;;;;;5011049;28;20038;-74
2024/03/11 06:12:52;;;;;;;32.15;14.70;;;7.90;99.90;;;;;;5012887;28;20494;-75
2024/03/11 06:15:18;;;;;;;33.47;13.60;;;7.80;99.90;;;;;;5012909;28;20085;-74
2024/03/11 06:17:44;;;;;;;28.30;14.73;;;7.80;99.90;;;;;;4996751;28;20057;-74
2024/03/11 06:20:13;;;;;;;32.08;13.75;;;7.80;99.90;;;;;;5017125;28;20042;-75
2024/03/11 06:22:39;;;;;;;29.63;14.18;;;7.80;99.90;;;;;;5015091;28;20576;-73
2024/03/11 06:25:06;;;;;;;43.17;13.90;;;7.80;99.90;;;;;;4999020;28;20029;-74
2024/03/11 06:27:32;;;;;;;31.65;14.48;;;7.80;99.90;;;;;;4997066;28;20402;-74
2024/03/11 06:29:57;;;;;;;26.48;13.15;;;7.70;99.90;;;;;;5016876;28;20034;-74
2024/03/11 06:32:30;;;;;;;29.45;13.30;;;7.70;99.90;;;;;;4998934;28;20124;-73
2024/03/11 06:34:57;;;;;;;32.50;14.50;;;7.70;99.90;;;;;;5016564;28;20046;-75
2024/03/11 06:37:22;;;;;;;33.45;15.13;;;7.70;99.90;;;;;;4995757;28;20048;-75
2024/03/11 06:39:48;;;;;;;31.98;14.55;;;7.70;99.90;;;;;;5023269;28;20440;-74
2024/03/11 06:42:14;;;;;;;33.60;14.07;;;7.70;99.90;;;;;;4996236;28;20038;-74
2024/03/11 06:44:40;;;;;;;33.83;14.65;;;7.60;99.90;;;;;;4994605;28;20095;-74
2024/03/11 06:47:08;;;;;;;35.22;14.23;;;7.70;99.90;;;;;;5005851;28;20026;-74
2024/03/11 06:49:34;;;;;;;29.15;12.57;;;7.60;99.90;;;;;;5010998;28;20034;-74
2024/03/11 06:52:00;;;;;;;34.70;15.93;;;7.70;99.90;;;;;;5010904;28;20051;-77
2024/03/11 06:54:25;;;;;;;36.83;15.93;;;7.60;99.90;;;;;;4993597;28;20423;-73
2024/03/11 06:56:51;;;;;;;33.00;15.20;;;7.60;99.90;;;;;;4997350;28;20033;-74
2024/03/11 06:59:16;;;;;;;33.08;14.40;;;7.60;99.90;;;;;;5018104;28;20491;-73
2024/03/11 07:01:42;;;;;;;34.05;14.73;;;7.60;99.90;;;;;;5011583;28;21020;-75
2024/03/11 07:04:11;;;;;;;36.10;14.82;;;7.70;99.90;;;;;;5011348;28;20049;-74
2024/03/11 07:06:39;;;;;;;36.70;15.50;;;7.70;99.90;;;;;;5010000;28;20137;-75
2024/03/11 07:09:05;;;;;;;30.08;13.68;;;7.70;99.90;;;;;;5010161;28;20030;-74
2024/03/11 07:11:31;;;;;;;30.60;13.88;;;7.70;99.90;;;;;;5009998;28;20042;-72
2024/03/11 07:13:57;;;;;;;30.35;13.95;;;7.70;99.90;;;;;;5006390;28;20038;-74
2024/03/11 07:16:23;;;;;;;31.88;14.40;;;7.60;99.90;;;;;;4994351;28;20046;-75
2024/03/11 07:18:53;;;;;;;37.20;15.30;;;7.70;99.90;;;;;;5011526;28;20195;-74
2024/03/11 07:21:18;;;;;;;36.53;14.80;;;7.60;99.90;;;;;;5007725;28;20064;-74
2024/03/11 07:23:48;;;;;;;31.02;14.82;;;7.70;99.90;;;;;;5011606;28;20030;-75
2024/03/11 07:26:14;;;;;;;34.17;15.25;;;7.70;99.90;;;;;;5016479;28;20038;-77
2024/03/11 07:28:40;;;;;;;32.00;15.40;;;7.70;99.90;;;;;;5009581;28;20029;-76
2024/03/11 07:31:06;;;;;;;34.70;14.60;;;7.70;99.90;;;;;;5008177;28;20036;-74
2024/03/11 07:33:31;;;;;;;31.58;14.20;;;7.70;99.90;;;;;;4989345;28;20981;-74
2024/03/11 07:35:57;;;;;;;36.40;14.93;;;7.70;99.90;;;;;;5006478;28;20041;-74
2024/03/11 07:38:23;;;;;;;28.63;12.98;;;7.70;99.90;;;;;;5006098;28;20034;-75
2024/03/11 07:40:49;;;;;;;36.60;14.85;;;7.70;99.90;;;;;;5010465;28;20030;-74
2024/03/11 07:43:15;;;;;;;32.40;15.73;;;7.70;99.90;;;;;;5007769;28;20054;-75
2024/03/11 07:45:41;;;;;;;34.05;15.15;;;7.70;99.90;;;;;;5007519;28;20046;-75
2024/03/11 07:48:12;;;;;;;35.55;14.80;;;7.70;99.90;;;;;;5008893;28;20046;-74
2024/03/11 07:50:38;;;;;;;35.33;14.90;;;7.70;99.90;;;;;;5007014;28;20049;-73
2024/03/11 07:53:05;;;;;;;34.53;14.65;;;7.70;99.90;;;;;;5008259;28;20030;-76
2024/03/11 07:55:32;;;;;;;30.00;15.25;;;7.80;99.90;;;;;;4989870;28;20034;-73
2024/03/11 07:57:57;;;;;;;34.22;14.15;;;7.80;99.90;;;;;;5007913;28;20108;-75
2024/03/11 08:00:29;;;;;;;32.28;14.35;;;7.80;99.90;;;;;;5010158;28;21897;-73
2024/03/11 08:02:58;;;;;;;31.50;13.95;;;7.80;99.90;;;;;;5007703;28;20092;-74
2024/03/11 08:05:25;;;;;;;30.52;14.02;;;7.80;99.90;;;;;;4992906;28;20034;-74
2024/03/11 08:07:51;;;;;;;32.97;14.85;;;7.80;99.90;;;;;;4991623;28;21804;-74
2024/03/11 08:10:18;;;;;;;32.70;14.38;;;7.80;99.90;;;;;;5007571;28;20026;-75
2024/03/11 08:12:45;;;;;;;34.40;15.07;;;7.80;99.90;;;;;;4990549;28;20045;-75
2024/03/11 08:15:12;;;;;;;33.97;14.90;;;7.80;99.90;;;;;;5007749;28;20487;-75
2024/03/11 08:17:43;;;;;;;35.28;15.60;;;7.80;99.90;;;;;;4999247;28;20157;-75
2024/03/11 08:20:16;;;;;;;32.45;14.98;;;7.80;99.90;;;;;;4990043;28;20043;-75
2024/03/11 08:22:43;;;;;;;35.17;15.85;;;7.80;99.90;;;;;;5005389;28;20054;-74
2024/03/11 08:25:11;;;;;;;33.28;14.80;;;7.80;99.90;;;;;;4982230;28;20106;-74
2024/03/11 08:27:37;;;;;;;34.17;15.38;;;7.80;99.90;;;;;;4986658;28;20538;-74
2024/03/11 08:30:04;;;;;;;36.90;15.50;;;7.80;99.90;;;;;;5006806;28;20052;-74
2024/03/11 08:32:31;;;;;;;36.15;15.90;;;7.90;99.90;;;;;;5001827;28;20111;-74
2024/03/11 08:34:56;;;;;;;33.80;16.10;;;7.90;99.90;;;;;;4986886;28;20191;-74
2024/03/11 08:37:22;;;;;;;36.40;16.15;;;7.90;99.90;;;;;;4987947;28;20470;-73
2024/03/11 08:39:48;;;;;;;35.97;15.93;;;7.90;99.90;;;;;;4989099;28;20033;-73
2024/03/11 08:42:14;;;;;;;32.80;14.55;;;7.90;99.90;;;;;;5005452;28;20621;-73
2024/03/11 08:44:43;;;;;;;32.20;15.27;;;7.80;99.90;;;;;;5005676;28;20058;-73
2024/03/11 08:47:11;;;;;;;32.53;14.52;;;7.90;99.90;;;;;;5002798;28;20086;-74
2024/03/11 08:49:40;;;;;;;36.42;17.10;;;7.90;99.90;;;;;;5001415;28;20025;-74
2024/03/11 08:52:06;;;;;;;35.63;16.33;;;7.90;99.90;;;;;;4988007;28;20060;-73
2024/03/11 08:54:32;;;;;;;31.20;15.30;;;7.90;99.90;;;;;;4987759;28;20045;-75
2024/03/11 08:56:59;;;;;;;37.90;15.23;;;7.90;99.90;;;;;;5008432;28;20495;-77
2024/03/11 08:59:26;;;;;;;35.83;15.55;;;7.90;99.90;;;;;;5012247;28;20052;-74
2024/03/11 09:01:57;;;;;;;34.53;15.73;;;7.90;99.90;;;;;;5003333;28;20038;-74
2024/03/11 09:04:25;;;;;;;37.58;16.33;;;7.90;99.90;;;;;;5002664;28;20072;-74
2024/03/11 09:06:51;;;;;;;39.50;16.27;;;7.90;99.90;;;;;;4984025;28;20033;-75
2024/03/11 09:09:24;;;;;;;35.25;15.60;;;7.90;99.90;;;;;;4985692;28;20522;-74
2024/03/11 09:11:56;;;;;;;36.50;15.93;;;7.90;99.90;;;;;;4986040;28;20035;-74
2024/03/11 09:14:25;;;;;;;34.45;15.95;;;7.90;99.90;;;;;;5008711;28;20034;-74
2024/03/11 09:16:56;;;;;;;29.75;15.20;;;7.80;99.90;;;;;;5001552;28;20053;-74
2024/03/11 09:19:23;;;;;;;31.67;14.10;;;7.80;99.90;;;;;;5003497;28;20120;-75
2024/03/11 09:21:50;;;;;;;36.65;15.35;;;7.80;99.90;;;;;;5004013;28;20042;-74
2024/03/11 09:24:17;;;;;;;35.72;14.55;;;7.70;99.90;;;;;;5005371;28;20030;-75
2024/03/11 09:26:44;;;;;;;37.30;16.20;;;7.70;99.90;;;;;;5001974;28;20069;-74
2024/03/11 09:29:09;;;;;;;35.67;15.90;;;7.80;99.90;;;;;;5007156;28;20045;-76
2024/03/11 09:31:35;;;;;;;38.35;16.42;;;7.70;99.90;;;;;;5005438;28;20037;-75
2024/03/11 09:34:03;;;;;;;38.88;17.13;;;7.70;99.90;;;;;;5000765;28;20079;-73
2024/03/11 09:36:31;;;;;;;39.55;15.35;;;7.70;99.90;;;;;;5003974;28;20416;-74
2024/03/11 09:38:57;;;;;;;41.03;17.75;;;7.70;99.90;;;;;;5005900;28;20049;-74
2024/03/11 09:41:25;;;;;;;36.03;15.52;;;7.80;99.90;;;;;;4985852;28;20468;-74
2024/03/11 09:43:51;;;;;;;36.75;16.25;;;7.80;99.90;;;;;;5004374;28;20053;-75
2024/03/11 09:46:20;;;;;;;34.35;15.65;;;7.80;99.90;;;;;;5009390;28;20054;-75
2024/03/11 09:48:51;;;;;;;49.70;14.60;;;7.80;99.90;;;;;;5004645;28;20045;-75
2024/03/11 09:51:24;;;;;;;;;;;7.80;99.90;;;;;;4986965;28;20029;-73
2024/03/11 09:53:58;;;;;;;33.63;15.02;;;7.80;99.90;;;;;;5000647;28;19957;-74
2024/03/11 09:56:24;;;;;;;33.88;14.02;;;7.80;99.90;;;;;;5003586;28;20061;-76
2024/03/11 09:58:58;;;;;;;34.78;15.27;;;7.80;99.90;;;;;;5002474;28;20491;-74
2024/03/11 10:01:33;;;;;;;35.70;15.02;;;7.80;99.90;;;;;;5001377;28;20042;-75
2024/03/11 10:03:59;;;;;;;36.42;14.48;;;7.80;99.90;;;;;;4988511;28;20037;-74
2024/03/11 10:06:30;;;;;;;35.97;14.80;;;7.90;99.90;;;;;;5005749;28;20038;-76
2024/03/11 10:08:56;;;;;;;39.75;16.75;;;7.90;99.90;;;;;;5001072;28;20052;-75
2024/03/11 10:11:24;;;;;;;46.42;17.67;;;7.90;99.90;;;;;;4988974;28;20049;-74
2024/03/11 10:13:52;;;;;;;35.67;16.25;;;7.90;99.90;;;;;;5005804;28;20037;-74
2024/03/11 10:16:21;;;;;;;35.33;15.82;;;7.90;99.90;;;;;;5005559;28;20068;-74
2024/03/11 10:19:02;;;;;;;39.08;16.23;;;7.90;99.90;;;;;;5003954;28;20034;-74
2024/03/11 10:21:29;;;;;;;38.50;15.30;;;8.00;99.90;;;;;;5005584;28;20042;-75
2024/03/11 10:23:59;;;;;;;32.40;15.35;;;8.00;99.90;;;;;;5004687;28;20023;-75
2024/03/11 10:26:29;;;;;;;34.63;15.45;;;8.00;99.90;;;;;;5005038;28;20033;-73
2024/03/11 10:28:56;;;;;;;38.92;14.77;;;7.90;99.90;;;;;;4988799;28;20034;-73
2024/03/11 10:31:24;;;;;;;33.03;14.32;;;7.90;99.90;;;;;;5008873;28;20426;-74
2024/03/11 10:33:56;;;;;;;33.80;15.32;;;7.90;99.90;;;;;;4988941;28;20054;-74
2024/03/11 10:36:25;;;;;;;33.58;15.57;;;7.90;99.90;;;;;;4983160;28;20046;-73
2024/03/11 10:38:53;;;;;;;39.38;15.27;;;7.90;99.90;;;;;;5003384;28;20037;-74
2024/03/11 10:41:23;;;;;;;33.45;14.65;;;7.90;99.90;;;;;;5006981;28;20030;-74
2024/03/11 10:43:51;;;;;;;39.13;16.02;;;7.90;99.90;;;;;;5003081;28;20034;-72
2024/03/11 10:46:22;;;;;;;31.38;15.93;;;7.90;99.90;;;;;;5004785;28;20076;-73
2024/03/11 10:48:50;;;;;;;38.65;15.35;;;7.90;99.90;;;;;;5005729;28;20034;-74
2024/03/11 10:51:24;;;;;;;41.10;15.73;;;8.00;99.90;;;;;;5006821;28;20030;-73
2024/03/11 10:53:52;;;;;;;35.40;14.60;;;8.00;99.90;;;;;;4985748;28;20444;-72
2024/03/11 10:56:24;;;;;;;33.50;15.43;;;8.10;99.90;;;;;;5002986;28;20034;-72
2024/03/11 10:58:55;;;;;;;37.50;15.00;;;8.10;99.90;;;;;;4988180;28;20036;-72
2024/03/11 11:01:34;;;;;;;37.05;16.02;;;8.20;99.90;;;;;;5007425;28;20034;-73
2024/03/11 11:04:05;;;;;;;32.67;14.45;;;8.20;99.90;;;;;;4990987;28;20029;-74
2024/03/11 11:06:33;;;;;;;31.27;14.15;;;8.30;99.90;;;;;;4990660;28;20599;-73
2024/03/11 11:09:10;;;;;;;32.00;13.82;;;8.30;99.90;;;;;;5012038;28;20041;-73
2024/03/11 11:11:38;;;;;;;35.33;13.57;;;8.20;99.90;;;;;;4991020;28;20117;-73
2024/03/11 11:14:04;;;;;;;33.13;14.02;;;8.10;99.90;;;;;;5012230;28;20036;-73
2024/03/11 11:16:29;;;;;;;32.38;13.80;;;8.10;99.90;;;;;;5006825;28;20153;-74
2024/03/11 11:18:59;;;;;;;30.23;13.25;;;8.10;99.90;;;;;;5014012;28;20492;-74
2024/03/11 11:21:29;;;;;;;36.22;14.57;;;8.10;99.90;;;;;;5012199;28;20065;-72
2024/03/11 11:23:56;;;;;;;28.52;12.68;;;8.10;99.90;;;;;;4989715;28;20109;-73
2024/03/11 11:26:41;;;;;;;31.55;13.60;;;8.10;99.90;;;;;;5002497;28;20080;-72
2024/03/11 11:29:07;;;;;;;31.20;12.65;;;8.10;99.90;;;;;;5003009;28;20058;-73
2024/03/11 11:31:33;;;;;;;27.77;12.40;;;8.10;99.90;;;;;;4979696;28;20108;-74
2024/03/11 11:34:04;;;;;;;31.70;14.07;;;8.10;99.90;;;;;;5003652;28;20041;-73
2024/03/11 11:36:32;;;;;;;40.72;12.63;;;8.10;99.90;;;;;;4998891;28;20115;-73
2024/03/11 11:39:27;;;;;;;31.40;12.10;;;8.00;99.90;;;;;;4980623;28;20038;-73
2024/03/11 11:41:57;;;;;;;35.42;13.70;;;8.00;99.90;;;;;;5004407;28;20045;-74
2024/03/11 11:44:25;;;;;;;28.35;12.05;;;8.00;99.90;;;;;;4991309;28;20033;-74
2024/03/11 11:46:51;;;;;;;30.27;13.73;;;7.90;99.90;;;;;;5003033;28;20132;-74
2024/03/11 11:49:27;;;;;;;35.67;14.25;;;7.90;99.90;;;;;;5011348;28;20410;-75
2024/03/11 11:51:54;;;;;;;32.85;13.73;;;7.80;99.90;;;;;;5002659;28;20062;-74
2024/03/11 11:54:28;;;;;;;30.73;13.63;;;7.90;99.90;;;;;;5004571;28;20018;-76
2024/03/11 11:57:04;;;;;;;31.17;13.13;;;7.90;99.90;;;;;;4983146;28;20502;-75
2024/03/11 11:59:30;;;;;;;33.60;12.90;;;7.90;99.90;;;;;;4990504;28;20053;-74
2024/03/11 12:02:00;;;;;;;25.52;11.48;;;7.80;99.90;;;;;;4987202;28;20466;-74
2024/03/11 12:04:28;;;;;;;29.85;13.35;;;7.80;99.90;;;;;;5010390;28;20040;-75
2024/03/11 12:06:54;;;;;;;33.58;13.50;;;7.80;99.90;;;;;;4992872;28;20034;-75
2024/03/11 12:09:20;;;;;;;34.38;13.23;;;7.80;99.90;;;;;;5006385;28;20893;-74
2024/03/11 12:11:49;;;;;;;28.70;13.23;;;7.80;99.90;;;;;;4985796;28;20033;-75
2024/03/11 12:14:15;;;;;;;38.50;14.35;;;7.80;99.90;;;;;;4985530;28;20033;-73
2024/03/11 12:16:44;;;;;;;30.10;13.65;;;7.70;99.90;;;;;;5003759;28;20097;-75
2024/03/11 12:19:10;;;;;;;30.13;12.32;;;7.70;99.90;;;;;;5003043;28;20488;-75
2024/03/11 12:21:42;;;;;;;31.63;12.68;;;7.70;99.90;;;;;;4986218;28;20026;-75
2024/03/11 12:24:13;;;;;;;31.05;13.48;;;7.70;99.90;;;;;;4985493;28;20065;-75
2024/03/11 12:26:41;;;;;;;33.45;14.05;;;7.70;99.90;;;;;;5002656;28;20522;-74
2024/03/11 12:29:14;;;;;;;25.30;11.85;;;7.70;99.90;;;;;;5006306;28;20073;-73
2024/03/11 12:31:41;;;;;;;38.00;13.23;;;7.70;99.90;;;;;;5008421;28;20038;-75
2024/03/11 12:34:15;;;;;;;32.10;13.23;;;7.70;99.90;;;;;;5006404;28;20042;-74
2024/03/11 12:36:49;;;;;;;31.52;13.23;;;7.70;99.90;;;;;;5003538;28;20059;-74
2024/03/11 12:39:33;;;;;;;33.45;13.35;;;7.70;99.90;;;;;;5006220;28;20066;-74
2024/03/11 12:42:00;;;;;;;34.58;12.85;;;7.70;99.90;;;;;;4989200;28;20033;-74